Time;durP1;ratioP1;P1;durP2;ratioP2;P2;SDS_P1;SDS_P2;PMS_P1;PMS_P2;Temp;Humidity;BMP_temperature;BMP_pressure;BME280_temperature;BME280_humidity;BME280_pressure;Samples;Min_cycle;Max_cycle;Signal;HPM_P1;HPM_P2
2022/03/11 00:00:52;;;;;;;;;20.50;20.25;;;;;13.13;46.49;100684.34;5056698;28;45940;-58
2022/03/11 00:03:20;;;;;;;;;23.75;23.25;;;;;13.07;46.49;100676.16;5056515;28;45348;-58
2022/03/11 00:05:45;;;;;;;;;28.60;25.20;;;;;12.85;46.74;100635.28;5056241;27;45231;-58
2022/03/11 00:08:11;;;;;;;;;33.75;24.75;;;;;12.72;46.54;100603.25;5057357;28;45614;-58
2022/03/11 00:10:37;;;;;;;;;29.25;26.25;;;;;12.79;46.54;100623.28;5056245;28;45344;-56
2022/03/11 00:13:03;;;;;;;;;25.50;20.75;;;;;12.96;47.12;100651.06;5055165;28;45635;-58
2022/03/11 00:15:28;;;;;;;;;22.25;19.50;;;;;12.73;47.28;100626.97;5056614;28;45428;-59
2022/03/11 00:17:54;;;;;;;;;26.50;25.50;;;;;12.97;47.37;100661.00;5055058;28;45547;-58
2022/03/11 00:20:20;;;;;;;;;25.75;23.50;;;;;12.82;47.10;100636.59;5056571;28;46108;-56
2022/03/11 00:22:49;;;;;;;;;25.80;20.40;;;;;12.59;47.28;100585.81;5055970;28;45491;-58
2022/03/11 00:25:15;;;;;;;;;22.20;20.40;;;;;12.90;46.86;100637.38;5055175;28;45405;-59
2022/03/11 00:27:40;;;;;;;;;23.75;20.25;;;;;13.04;46.91;100649.91;5038078;28;45674;-58
2022/03/11 00:30:06;;;;;;;;;23.50;19.75;;;;;12.75;47.30;100605.53;5055912;28;45718;-58
2022/03/11 00:32:32;;;;;;;;;26.50;22.00;;;;;12.86;47.09;100620.47;5054883;28;45301;-58
2022/03/11 00:34:57;;;;;;;;;24.00;20.75;;;;;12.79;47.17;100620.53;5056279;28;45366;-58
2022/03/11 00:37:23;;;;;;;;;23.75;20.75;;;;;12.60;47.23;100592.16;5056119;28;45403;-57
2022/03/11 00:39:48;;;;;;;;;21.50;20.00;;;;;12.88;47.10;100643.09;5056137;28;45912;-60
2022/03/11 00:42:14;;;;;;;;;30.50;25.75;;;;;12.85;47.45;100647.16;5055576;28;45421;-59
2022/03/11 00:44:40;;;;;;;;;22.75;20.75;;;;;12.82;47.13;100639.34;5056245;28;45426;-57
2022/03/11 00:47:09;;;;;;;;;23.60;21.40;;;;;12.74;47.47;100637.75;5055980;28;45655;-58
2022/03/11 00:49:35;;;;;;;;;20.00;18.00;;;;;12.46;47.90;100586.81;5055995;28;45257;-60
2022/03/11 00:52:01;;;;;;;;;21.60;20.00;;;;;12.65;47.73;100632.78;5055845;28;45614;-59
2022/03/11 00:54:26;;;;;;;;;24.50;20.50;;;;;12.68;47.92;100626.78;5055924;28;45223;-58
2022/03/11 00:56:52;;;;;;;;;20.75;18.75;;;;;12.68;47.63;100613.88;5055469;28;45475;-59
2022/03/11 00:59:17;;;;;;;;;22.75;19.25;;;;;12.60;48.10;100598.50;5055450;28;45453;-56
2022/03/11 01:01:43;;;;;;;;;22.25;21.25;;;;;12.73;48.10;100608.53;5053405;28;45815;-58
2022/03/11 01:04:08;;;;;;;;;20.75;18.75;;;;;12.74;47.94;100606.59;5054246;28;45499;-59
2022/03/11 01:06:34;;;;;;;;;20.00;18.75;;;;;12.78;47.93;100601.47;5055562;28;45428;-58
2022/03/11 01:08:59;;;;;;;;;20.00;19.00;;;;;12.81;47.49;100604.59;5037866;27;45984;-57
2022/03/11 01:11:25;;;;;;;;;17.75;17.50;;;;;12.54;47.69;100568.31;5055240;28;45348;-59
2022/03/11 01:13:50;;;;;;;;;24.25;20.25;;;;;12.73;47.72;100597.53;5055227;28;45483;-56
2022/03/11 01:16:16;;;;;;;;;24.00;21.00;;;;;12.83;47.76;100604.38;5055600;28;45392;-57
2022/03/11 01:18:42;;;;;;;;;20.00;18.50;;;;;12.83;47.83;100601.63;5054157;28;46600;-59
2022/03/11 01:21:08;;;;;;;;;21.00;18.00;;;;;12.84;47.89;100601.41;5055321;28;45408;-58
2022/03/11 01:23:34;;;;;;;;;26.80;22.20;;;;;12.54;47.63;100555.38;5055262;28;45421;-58
2022/03/11 01:25:59;;;;;;;;;22.80;18.00;;;;;12.82;47.90;100594.44;5055699;28;45275;-57
2022/03/11 01:28:25;;;;;;;;;20.25;19.00;;;;;12.60;48.02;100593.00;5054772;28;46186;-56
2022/03/11 01:30:50;;;;;;;;;21.50;20.00;;;;;12.53;47.72;100586.72;5053976;28;45337;-57
2022/03/11 01:33:16;;;;;;;;;21.25;18.25;;;;;12.42;48.45;100580.06;5055125;28;45199;-58
2022/03/11 01:35:41;;;;;;;;;23.00;20.00;;;;;12.40;48.82;100576.72;5055519;28;45316;-59
2022/03/11 01:38:07;;;;;;;;;21.75;20.00;;;;;12.31;48.65;100570.66;5053420;28;45418;-58
2022/03/11 01:40:32;;;;;;;;;24.50;19.50;;;;;12.40;48.59;100584.13;5055089;28;45396;-59
2022/03/11 01:42:58;;;;;;;;;18.50;18.50;;;;;12.27;48.95;100561.16;5054990;28;45416;-56
2022/03/11 01:45:23;;;;;;;;;24.25;18.50;;;;;12.24;48.96;100553.38;5053989;28;45621;-57
2022/03/11 01:47:49;;;;;;;;;21.25;19.50;;;;;12.36;48.92;100572.72;5054945;28;46541;-59
2022/03/11 01:50:14;;;;;;;;;26.25;21.00;;;;;12.36;48.82;100563.63;5070207;27;45423;-59
2022/03/11 01:52:40;;;;;;;;;23.75;21.25;;;;;12.03;48.80;100513.34;5054941;28;45326;-56
2022/03/11 01:55:06;;;;;;;;;23.25;20.75;;;;;12.31;48.86;100553.28;5054552;27;45561;-60
2022/03/11 01:57:35;;;;;;;;;20.50;18.00;;;;;12.37;48.97;100557.88;5055214;28;45440;-56
2022/03/11 02:00:01;;;;;;;;;24.20;19.20;;;;;11.83;48.62;100466.78;5055148;28;45271;-59
2022/03/11 02:02:26;;;;;;;;;24.00;17.80;;;;;12.39;48.56;100563.19;5055159;28;45331;-57
2022/03/11 02:04:52;;;;;;;;;20.25;20.25;;;;;12.20;48.76;100528.25;5054915;28;45777;-58
2022/03/11 02:07:17;;;;;;;;;19.25;17.00;;;;;12.39;48.62;100557.66;5054703;28;46144;-55
2022/03/11 02:09:43;;;;;;;;;26.25;24.25;;;;;12.24;48.65;100542.38;5051881;28;45687;-54
2022/03/11 02:12:09;;;;;;;;;21.00;18.00;;;;;12.24;49.05;100553.38;5054623;28;45471;-59
2022/03/11 02:14:34;;;;;;;;;24.20;23.40;;;;;12.22;49.11;100557.44;5058624;28;45377;-59
2022/03/11 02:17:00;;;;;;;;;21.25;16.75;;;;;12.21;49.16;100559.31;5029739;28;45895;-57
2022/03/11 02:19:25;;;;;;;;;29.50;22.75;;;;;12.19;49.41;100558.72;5058333;28;45424;-59
2022/03/11 02:21:51;;;;;;;;;22.50;18.75;;;;;12.13;49.29;100552.22;5058349;28;45500;-57
2022/03/11 02:24:17;;;;;;;;;25.00;18.00;;;;;12.11;49.28;100554.34;5057289;28;45456;-57
2022/03/11 02:26:43;;;;;;;;;23.75;22.25;;;;;12.12;49.42;100549.69;5058325;28;46006;-59
2022/03/11 02:29:08;;;;;;;;;22.25;18.00;;;;;12.06;49.04;100549.53;5057858;28;45495;-57
2022/03/11 02:31:34;;;;;;;;;25.50;21.25;;;;;12.09;49.70;100541.88;5057061;28;45397;-59
2022/03/11 02:34:00;;;;;;;;;19.75;17.75;;;;;12.09;49.72;100542.72;5058465;28;45362;-58
2022/03/11 02:36:25;;;;;;;;;18.20;17.00;;;;;11.88;49.35;100514.56;5058363;28;45241;-58
2022/03/11 02:38:51;;;;;;;;;19.50;19.50;;;;;12.02;49.88;100536.44;5057827;28;45369;-58
2022/03/11 02:41:17;;;;;;;;;22.25;18.75;;;;;11.78;50.44;100515.06;5056575;28;45343;-58
2022/03/11 02:43:42;;;;;;;;;25.75;23.50;;;;;11.88;50.35;100536.56;5056784;28;45645;-57
2022/03/11 02:46:11;;;;;;;;;23.50;18.50;;;;;11.83;50.32;100533.63;5057550;28;46093;-57
2022/03/11 02:48:37;;;;;;;;;25.60;20.80;;;;;11.85;50.44;100533.41;5056235;28;45434;-57
2022/03/11 02:51:02;;;;;;;;;19.25;18.00;;;;;11.80;50.47;100523.94;5056404;28;45410;-58
2022/03/11 02:53:28;;;;;;;;;19.75;17.25;;;;;11.46;50.46;100484.91;5057979;28;45357;-56
2022/03/11 02:55:53;;;;;;;;;20.50;19.00;;;;;11.72;51.30;100529.72;5057114;28;45979;-58
2022/03/11 02:58:19;;;;;;;;;21.00;19.25;;;;;11.70;51.14;100518.13;5057635;28;45305;-58
2022/03/11 03:00:45;;;;;;;;;17.75;16.50;;;;;11.73;51.16;100516.78;5073106;27;45411;-59
2022/03/11 03:03:11;;;;;;;;;23.25;19.50;;;;;11.66;51.41;100512.22;5073511;27;45304;-57
2022/03/11 03:05:36;;;;;;;;;18.00;17.75;;;;;11.42;51.11;100486.41;5057521;28;45201;-58
2022/03/11 03:08:02;;;;;;;;;21.25;17.75;;;;;11.40;51.32;100474.78;5057372;28;45179;-57
2022/03/11 03:10:27;;;;;;;;;22.50;20.50;;;;;11.62;51.42;100504.63;5057632;28;45356;-56
2022/03/11 03:12:53;;;;;;;;;19.25;17.25;;;;;11.61;51.23;100506.56;5057768;28;45246;-59
2022/03/11 03:15:18;;;;;;;;;23.25;21.25;;;;;11.60;51.71;100496.63;5057335;28;45430;-59
2022/03/11 03:17:44;;;;;;;;;20.75;17.00;;;;;11.57;51.74;100491.56;5057456;28;45555;-56
2022/03/11 03:20:10;;;;;;;;;21.75;15.25;;;;;11.35;51.85;100455.38;5065282;27;45412;-61
2022/03/11 03:22:35;;;;;;;;;23.00;22.80;;;;;11.54;51.23;100478.28;5033344;28;46100;-59
2022/03/11 03:25:02;;;;;;;;;24.00;20.25;;;;;11.53;51.90;100476.59;5057000;28;45719;-59
2022/03/11 03:27:27;;;;;;;;;15.00;11.60;;;;;11.50;52.21;100475.16;5057103;28;45432;-60
2022/03/11 03:29:53;;;;;;;;;24.75;21.00;;;;;11.57;51.39;100480.56;5057206;28;45726;-59
2022/03/11 03:32:18;;;;;;;;;23.75;18.25;;;;;11.57;52.04;100463.25;5057332;28;45555;-59
2022/03/11 03:34:44;;;;;;;;;21.75;17.00;;;;;11.56;51.61;100484.38;5057089;28;46374;-58
2022/03/11 03:37:10;;;;;;;;;19.00;17.50;;;;;11.47;51.83;100481.06;5056038;28;45310;-56
2022/03/11 03:39:40;;;;;;;;;21.60;20.00;;;;;11.37;52.07;100478.00;5055691;28;45432;-59
2022/03/11 03:42:06;;;;;;;;;21.40;18.00;;;;;11.28;53.19;100471.94;5057138;28;45476;-59
2022/03/11 03:44:32;;;;;;;;;21.00;19.80;;;;;11.26;52.26;100485.03;5056726;28;47217;-58
2022/03/11 03:46:58;;;;;;;;;22.25;18.25;;;;;10.67;52.82;100403.72;5055609;28;45422;-59
2022/03/11 03:49:23;;;;;;;;;22.25;21.75;;;;;11.07;52.62;100462.16;5055847;28;45298;-55
2022/03/11 03:51:49;;;;;;;;;21.50;16.25;;;;;11.14;53.44;100471.19;5057303;28;45643;-59
2022/03/11 03:54:16;;;;;;;;;25.75;21.50;;;;;11.09;53.21;100466.38;5056438;28;45768;-59
2022/03/11 03:56:42;;;;;;;;;19.20;15.00;;;;;11.08;53.78;100461.09;5056166;27;45174;-61
2022/03/11 03:59:09;;;;;;;;;20.25;17.75;;;;;10.95;53.76;100451.06;5056360;28;45368;-59
2022/03/11 04:01:35;;;;;;;;;14.80;14.80;;;;;11.02;53.34;100457.34;5055013;28;45455;-57
2022/03/11 04:04:03;;;;;;;;;20.80;19.60;;;;;10.94;54.03;100461.19;5056338;28;45385;-59
2022/03/11 04:06:29;;;;;;;;;21.80;15.40;;;;;10.90;54.62;100451.72;5038689;28;45473;-58
2022/03/11 04:08:56;;;;;;;;;21.00;20.20;;;;;10.83;54.01;100450.91;5054884;28;45307;-58
2022/03/11 04:11:25;;;;;;;;;16.80;15.80;;;;;10.77;54.99;100449.06;5056811;28;45393;-58
2022/03/11 04:13:51;;;;;;;;;15.60;13.80;;;;;10.78;53.93;100451.56;5054747;28;46712;-57
2022/03/11 04:16:17;;;;;;;;;20.25;19.00;;;;;10.78;54.90;100443.31;5056015;27;45772;-59
2022/03/11 04:18:42;;;;;;;;;20.25;16.00;;;;;10.82;54.89;100428.09;5056013;28;45441;-58
2022/03/11 04:21:08;;;;;;;;;25.50;19.75;;;;;10.82;55.42;100439.09;5056410;28;45341;-56
2022/03/11 04:23:34;;;;;;;;;16.75;15.00;;;;;10.80;54.63;100434.88;5071266;27;47848;-59
2022/03/11 04:25:59;;;;;;;;;15.50;13.75;;;;;10.68;55.61;100416.38;5056117;28;45263;-57
2022/03/11 04:28:25;;;;;;;;;17.50;15.50;;;;;10.81;55.11;100433.81;5056227;28;45365;-55
2022/03/11 04:30:50;;;;;;;;;17.25;17.25;;;;;10.72;55.63;100441.47;5056294;28;45228;-59
2022/03/11 04:33:19;;;;;;;;;15.00;15.00;;;;;10.75;55.63;100442.94;5053975;28;46074;-58
2022/03/11 04:35:44;;;;;;;;;18.20;15.40;;;;;10.77;55.78;100438.91;5054910;28;45485;-60
2022/03/11 04:38:10;;;;;;;;;14.50;14.50;;;;;10.83;55.68;100442.66;5056277;28;45359;-59
2022/03/11 04:40:35;;;;;;;;;15.25;13.50;;;;;10.81;55.48;100428.31;5055701;28;45413;-57
2022/03/11 04:43:01;;;;;;;;;14.75;13.75;;;;;10.79;54.86;100445.00;5055479;28;45448;-57
2022/03/11 04:45:28;;;;;;;;;17.40;17.40;;;;;10.76;55.75;100458.34;5055162;28;45420;-60
2022/03/11 04:47:53;;;;;;;;;15.40;10.00;;;;;10.77;55.00;100443.56;5055674;28;45266;-59
2022/03/11 04:50:19;;;;;;;;;19.75;14.75;;;;;10.78;55.84;100450.75;5055968;28;45356;-59
2022/03/11 04:52:44;;;;;;;;;13.50;13.25;;;;;10.74;56.14;100446.75;5055855;28;46453;-59
2022/03/11 04:55:10;;;;;;;;;16.75;14.00;;;;;10.71;56.19;100437.03;5055109;28;45227;-57
2022/03/11 04:57:36;;;;;;;;;13.00;13.00;;;;;10.60;56.09;100416.63;5071345;28;45407;-57
2022/03/11 05:00:03;;;;;;;;;17.25;14.00;;;;;10.48;55.34;100418.38;5055955;28;45428;-57
2022/03/11 05:02:31;;;;;;;;;15.40;14.40;;;;;10.63;55.12;100429.94;5055324;28;45609;-58
2022/03/11 05:04:57;;;;;;;;;14.00;13.20;;;;;10.60;56.61;100435.84;5053818;28;45520;-59
2022/03/11 05:07:22;;;;;;;;;14.75;14.00;;;;;10.61;56.29;100436.69;5055745;28;45458;-57
2022/03/11 05:09:48;;;;;;;;;21.50;18.50;;;;;10.60;55.90;100438.59;5071248;28;45563;-58
2022/03/11 05:12:13;;;;;;;;;14.50;13.50;;;;;10.21;55.36;100371.84;5055288;28;46709;-59
2022/03/11 05:14:39;;;;;;;;;13.50;11.25;;;;;10.58;56.79;100419.59;5016038;28;45349;-55
2022/03/11 05:17:05;;;;;;;;;12.50;9.75;;;;;10.27;56.11;100390.19;5035476;28;45675;-58
2022/03/11 05:19:30;;;;;;;;;9.00;7.50;;;;;10.15;56.54;100365.34;5035627;28;45399;-56
2022/03/11 05:21:56;;;;;;;;;13.50;11.25;;;;;10.45;55.95;100419.66;5050366;28;47217;-53
2022/03/11 05:24:22;;;;;;;;;14.00;13.75;;;;;10.46;56.67;100413.09;5035308;28;45357;-58
2022/03/11 05:26:48;;;;;;;;;16.00;10.50;;;;;10.50;57.08;100417.09;5035221;28;45332;-58
2022/03/11 05:29:14;;;;;;;;;14.00;12.80;;;;;10.36;55.72;100391.59;5035178;28;45668;-56
2022/03/11 05:31:39;;;;;;;;;13.00;13.00;;;;;10.48;56.37;100415.63;5035058;28;45871;-57
2022/03/11 05:34:05;;;;;;;;;17.75;12.50;;;;;10.38;57.40;100403.22;5034993;28;45563;-55
2022/03/11 05:36:30;;;;;;;;;19.25;15.00;;;;;10.32;57.53;100376.66;5035409;28;45480;-57
2022/03/11 05:38:57;;;;;;;;;15.25;13.50;;;;;10.43;57.03;100386.97;5039362;28;45514;-59
2022/03/11 05:41:22;;;;;;;;;15.00;13.20;;;;;10.38;56.25;100373.03;5070235;28;46733;-59
2022/03/11 05:43:48;;;;;;;;;13.50;13.50;;;;;10.54;56.74;100396.41;5054711;28;45524;-57
2022/03/11 05:46:13;;;;;;;;;10.75;10.75;;;;;10.55;57.02;100386.25;5054864;28;45322;-60
2022/03/11 05:48:39;;;;;;;;;13.50;13.00;;;;;10.49;57.10;100392.63;5055613;28;45243;-57
2022/03/11 05:51:05;;;;;;;;;18.00;12.75;;;;;10.29;56.79;100357.88;5053443;28;46533;-57
2022/03/11 05:53:33;;;;;;;;;12.50;10.25;;;;;10.41;56.01;100380.00;5055233;28;45329;-62
2022/03/11 05:56:02;;;;;;;;;10.40;10.00;;;;;10.46;56.49;100384.84;5070166;28;45564;-57
2022/03/11 05:58:27;;;;;;;;;14.40;13.40;;;;;10.49;56.45;100382.50;5055475;28;45574;-57
2022/03/11 06:00:53;;;;;;;;;14.00;14.00;;;;;10.50;56.87;100388.81;5054673;28;46538;-58
2022/03/11 06:03:18;;;;;;;;;13.75;10.25;;;;;10.50;56.21;100395.16;5053927;28;45353;-57
2022/03/11 06:05:44;;;;;;;;;13.75;11.75;;;;;10.52;57.17;100390.28;5054859;28;45177;-58
2022/03/11 06:08:12;;;;;;;;;12.25;9.75;;;;;10.52;56.87;100392.19;5055327;28;45464;-59
2022/03/11 06:10:38;;;;;;;;;16.60;14.00;;;;;10.52;56.79;100392.19;5054926;28;46826;-60
2022/03/11 06:13:03;;;;;;;;;13.25;12.75;;;;;10.54;56.77;100392.81;5070713;28;45455;-59
2022/03/11 06:15:41;;;;;;;;;13.75;13.75;;;;;10.54;56.93;100395.56;5045489;28;45477;-56
2022/03/11 06:18:15;;;;;;;;;12.80;12.40;;;;;10.54;56.72;100395.56;5054078;28;45323;-58
2022/03/11 06:20:46;;;;;;;;;12.60;10.80;;;;;10.55;57.11;100398.09;5053653;28;47229;-59
2022/03/11 06:23:13;;;;;;;;;11.80;11.60;;;;;10.57;56.89;100392.38;5055234;28;45396;-59
2022/03/11 06:25:38;;;;;;;;;13.00;12.20;;;;;10.55;57.18;100384.38;5020746;28;45751;-58
2022/03/11 06:28:04;;;;;;;;;14.25;14.25;;;;;10.55;56.64;100389.84;5054922;28;45429;-57
2022/03/11 06:30:30;;;;;;;;;15.00;13.25;;;;;10.55;56.31;100383.50;5054792;28;45525;-58
2022/03/11 06:32:55;;;;;;;;;15.50;12.75;;;;;10.44;56.24;100354.88;5054536;28;45431;-58
2022/03/11 06:35:21;;;;;;;;;14.75;12.50;;;;;10.44;57.57;100365.84;5054838;28;45422;-53
2022/03/11 06:37:47;;;;;;;;;11.25;10.00;;;;;10.54;56.80;100377.19;5054935;28;45388;-59
2022/03/11 06:40:13;;;;;;;;;13.80;10.40;;;;;10.36;55.98;100344.13;5054123;28;47519;-59
2022/03/11 06:42:43;;;;;;;;;12.75;9.50;;;;;10.58;57.20;100385.84;5054620;28;45607;-57
2022/03/11 06:45:09;;;;;;;;;7.80;7.80;;;;;10.56;56.78;100374.22;5053461;28;45515;-54
2022/03/11 06:47:35;;;;;;;;;16.00;10.40;;;;;10.59;56.59;100368.28;5053332;28;45696;-59
2022/03/11 06:50:01;;;;;;;;;15.00;12.25;;;;;10.61;57.22;100382.63;5070434;27;45934;-59
2022/03/11 06:52:27;;;;;;;;;11.80;10.00;;;;;10.40;56.99;100332.50;5054614;28;45515;-58
2022/03/11 06:54:52;;;;;;;;;8.50;8.50;;;;;10.64;56.86;100368.47;5054293;28;45321;-59
2022/03/11 06:57:18;;;;;;;;;7.75;7.25;;;;;10.64;57.02;100373.13;5053052;28;45383;-56
2022/03/11 06:59:44;;;;;;;;;9.25;9.25;;;;;10.65;57.20;100363.81;5072224;28;45308;-57
2022/03/11 07:02:09;;;;;;;;;11.80;9.00;;;;;10.50;57.01;100339.41;5072738;28;45377;-59
2022/03/11 07:04:35;;;;;;;;;9.25;8.25;;;;;10.65;56.57;100361.06;5057688;28;45444;-59
2022/03/11 07:07:00;;;;;;;;;9.00;9.00;;;;;10.66;56.59;100355.38;5057748;28;45361;-56
2022/03/11 07:09:26;;;;;;;;;15.00;13.50;;;;;10.64;56.46;100356.66;5072963;28;47415;-58
2022/03/11 07:11:57;;;;;;;;;7.20;6.60;;;;;10.73;56.43;100369.03;5057019;28;45405;-58
2022/03/11 07:14:25;;;;;;;;;9.80;9.20;;;;;10.75;56.18;100360.59;5057618;28;45420;-59
2022/03/11 07:16:52;;;;;;;;;9.20;8.00;;;;;10.78;56.34;100365.63;5057520;28;45554;-57
2022/03/11 07:19:21;;;;;;;;;9.80;8.60;;;;;10.68;56.16;100352.41;5031042;28;46385;-55
2022/03/11 07:21:46;;;;;;;;;9.40;8.20;;;;;10.85;57.03;100370.00;5053077;28;45432;-59
2022/03/11 07:24:12;;;;;;;;;10.75;10.75;;;;;10.35;55.81;100273.88;5056520;28;45402;-58
2022/03/11 07:26:37;;;;;;;;;14.75;10.75;;;;;10.81;56.28;100340.47;5057346;28;45391;-57
2022/03/11 07:29:03;;;;;;;;;10.50;7.50;;;;;10.89;57.11;100353.09;5072725;28;47952;-58
2022/03/11 07:31:28;;;;;;;;;8.00;8.00;;;;;10.92;55.97;100356.22;5057277;28;45328;-58
2022/03/11 07:33:57;;;;;;;;;8.75;8.75;;;;;10.93;56.56;100351.56;5072352;27;45385;-56
2022/03/11 07:36:23;;;;;;;;;8.60;7.80;;;;;10.88;55.83;100337.69;5057631;28;45723;-53
2022/03/11 07:38:48;;;;;;;;;12.50;9.25;;;;;10.96;56.03;100354.72;5056958;27;45353;-59
2022/03/11 07:41:15;;;;;;;;;10.25;8.00;;;;;10.80;55.80;100311.34;5056580;28;45507;-57
2022/03/11 07:43:42;;;;;;;;;9.40;8.60;;;;;11.02;55.97;100341.16;5072506;27;45420;-54
2022/03/11 07:46:08;;;;;;;;;10.40;8.20;;;;;11.03;56.00;100338.19;5056735;28;45551;-55
2022/03/11 07:48:34;;;;;;;;;10.80;8.20;;;;;10.95;56.14;100317.31;5056449;28;46532;-57
2022/03/11 07:51:02;;;;;;;;;9.00;9.00;;;;;10.98;56.35;100319.63;5056978;28;45243;-57
2022/03/11 07:53:28;;;;;;;;;9.60;8.80;;;;;11.09;56.03;100326.28;5039241;28;45387;-58
2022/03/11 07:55:53;;;;;;;;;7.75;7.75;;;;;11.10;55.90;100316.97;5055527;28;45845;-55
2022/03/11 07:58:21;;;;;;;;;13.75;9.75;;;;;11.17;56.06;100319.69;5056698;28;46177;-59
2022/03/11 08:00:48;;;;;;;;;11.00;9.40;;;;;11.22;55.83;100329.97;5072402;28;45686;-59
2022/03/11 08:03:14;;;;;;;;;9.00;8.60;;;;;11.22;56.21;100314.31;5055503;28;45407;-61
2022/03/11 08:05:39;;;;;;;;;8.40;7.60;;;;;11.28;55.48;100322.72;5057276;28;45554;-62
2022/03/11 08:08:05;;;;;;;;;7.25;7.00;;;;;11.19;56.21;100294.72;5056621;28;46030;-61
2022/03/11 08:10:33;;;;;;;;;7.50;7.00;;;;;11.19;55.95;100281.81;5055737;28;45321;-62
2022/03/11 08:13:00;;;;;;;;;8.00;5.40;;;;;11.41;55.49;100314.34;5056352;27;45422;-56
2022/03/11 08:15:25;;;;;;;;;9.00;8.20;;;;;11.45;55.10;100321.06;5055656;28;45658;-59
2022/03/11 08:17:51;;;;;;;;;7.00;5.25;;;;;11.35;55.28;100290.53;5056391;28;45393;-58
2022/03/11 08:20:18;;;;;;;;;6.40;6.40;;;;;11.55;55.33;100308.69;5054749;28;45377;-57
2022/03/11 08:22:45;;;;;;;;;9.80;7.80;;;;;11.61;54.85;100316.88;5058974;27;45361;-60
2022/03/11 08:25:13;;;;;;;;;10.20;8.60;;;;;11.63;55.25;100303.75;5055763;27;45530;-59
2022/03/11 08:27:39;;;;;;;;;14.60;10.80;;;;;11.74;54.61;100310.38;5055127;28;45934;-60
2022/03/11 08:30:05;;;;;;;;;8.75;8.75;;;;;11.70;54.13;100281.69;5055260;28;45429;-60
2022/03/11 08:32:31;;;;;;;;;8.20;7.80;;;;;11.86;54.61;100288.47;5056325;28;45439;-60
2022/03/11 08:34:58;;;;;;;;;8.75;8.75;;;;;11.91;53.71;100285.00;5056438;28;45368;-60
2022/03/11 08:37:24;;;;;;;;;10.00;8.60;;;;;11.72;53.45;100242.94;5055713;28;46482;-61
2022/03/11 08:39:49;;;;;;;;;9.80;8.00;;;;;11.97;53.90;100292.34;5056534;28;45443;-60
2022/03/11 08:42:15;;;;;;;;;8.00;7.00;;;;;11.92;53.38;100290.25;5056123;28;45294;-62
2022/03/11 08:44:40;;;;;;;;;6.25;5.25;;;;;11.91;53.26;100274.00;5056420;28;45667;-58
2022/03/11 08:47:06;;;;;;;;;6.75;6.00;;;;;11.92;53.17;100278.44;5055988;28;46018;-55
2022/03/11 08:49:32;;;;;;;;;7.75;5.50;;;;;11.87;53.99;100259.88;5041430;27;45384;-56
2022/03/11 08:51:57;;;;;;;;;9.25;7.00;;;;;12.00;53.43;100278.09;5053915;28;45857;-59
2022/03/11 08:54:23;;;;;;;;;7.25;5.50;;;;;11.93;53.18;100269.09;5056152;28;45396;-59
2022/03/11 08:56:49;;;;;;;;;11.25;9.25;;;;;12.05;53.53;100275.53;5088364;27;45467;-57
2022/03/11 08:59:14;;;;;;;;;11.50;9.50;;;;;11.88;53.15;100239.56;5055643;28;45388;-57
2022/03/11 09:01:40;;;;;;;;;8.00;8.00;;;;;11.78;52.71;100217.28;5055947;28;45527;-57
2022/03/11 09:04:05;;;;;;;;;5.00;4.00;;;;;12.18;52.77;100276.41;5054523;28;45804;-59
2022/03/11 09:06:31;;;;;;;;;5.50;5.50;;;;;11.96;52.67;100224.66;5088214;27;45787;-61
2022/03/11 09:08:57;;;;;;;;;4.00;4.00;;;;;12.19;52.91;100256.06;5071692;28;45394;-56
2022/03/11 09:11:23;;;;;;;;;4.20;3.60;;;;;12.28;52.65;100265.66;5056219;28;45396;-57
2022/03/11 09:13:55;;;;;;;;;4.00;3.00;;;;;12.32;52.45;100249.53;5054874;28;45478;-61
2022/03/11 09:16:21;;;;;;;;;6.60;5.00;;;;;12.36;52.61;100255.38;5054876;28;46474;-59
2022/03/11 09:18:46;;;;;;;;;4.50;2.00;;;;;12.34;52.48;100261.97;5054711;28;45970;-58
2022/03/11 09:21:12;;;;;;;;;3.00;3.00;;;;;12.36;52.52;100255.38;5054932;28;45379;-57
2022/03/11 09:23:39;;;;;;;;;5.00;3.75;;;;;12.40;52.36;100262.09;5055782;28;45573;-53
2022/03/11 09:26:10;;;;;;;;;2.00;2.00;;;;;12.42;52.53;100259.94;5030060;28;45490;-58
2022/03/11 09:28:36;;;;;;;;;6.40;5.60;;;;;12.37;51.90;100222.13;5053128;28;45447;-55
2022/03/11 09:31:08;;;;;;;;;3.00;3.00;;;;;12.56;51.49;100247.66;5055398;28;45380;-56
2022/03/11 09:33:37;;;;;;;;;4.80;3.20;;;;;12.65;51.78;100255.56;5086824;27;45382;-58
2022/03/11 09:36:06;;;;;;;;;3.20;3.20;;;;;12.69;51.38;100259.50;5055759;28;45441;-60
2022/03/11 09:38:33;;;;;;;;;3.00;3.00;;;;;12.64;51.38;100235.44;5070729;28;45336;-58
2022/03/11 09:40:58;;;;;;;;;2.40;2.00;;;;;12.86;51.18;100251.41;5054271;28;45452;-54
2022/03/11 09:43:25;;;;;;;;;2.50;2.50;;;;;12.76;50.97;100234.63;5053849;28;45429;-57
2022/03/11 09:45:51;;;;;;;;;2.00;2.00;;;;;12.92;50.55;100257.88;5069590;28;47509;-55
2022/03/11 09:48:17;;;;;;;;;3.50;3.00;;;;;12.56;51.11;100178.00;5054241;28;45497;-57
2022/03/11 09:50:43;;;;;;;;;5.00;3.50;;;;;12.92;50.95;100235.81;5055308;28;45527;-58
2022/03/11 09:53:09;;;;;;;;;4.00;4.00;;;;;12.82;50.47;100214.41;5054466;28;45400;-57
2022/03/11 09:55:35;;;;;;;;;2.60;1.80;;;;;12.97;50.47;100227.69;5087140;27;45491;-58
2022/03/11 09:58:01;;;;;;;;;2.25;2.25;;;;;12.98;50.58;100235.69;5087481;27;45414;-58
2022/03/11 10:00:26;;;;;;;;;3.00;2.20;;;;;12.95;50.79;100232.56;5055164;28;45315;-54
2022/03/11 10:02:52;;;;;;;;;3.50;3.50;;;;;12.93;50.41;100223.72;5037579;27;45484;-56
2022/03/11 10:05:17;;;;;;;;;3.00;3.00;;;;;12.90;50.83;100230.56;5032865;28;46130;-54
2022/03/11 10:07:43;;;;;;;;;4.00;3.00;;;;;12.92;51.01;100202.78;5049948;28;45618;-53
2022/03/11 10:10:19;;;;;;;;;5.00;5.00;;;;;12.74;52.20;100152.25;5034830;28;45277;-56
2022/03/11 10:12:45;;;;;;;;;3.60;2.40;;;;;12.94;52.62;100192.34;5034562;28;45589;-60
2022/03/11 10:15:11;;;;;;;;;1.00;1.00;;;;;12.97;53.01;100211.97;5034596;28;46148;-57
2022/03/11 10:17:39;;;;;;;;;3.60;3.00;;;;;13.08;52.91;100220.50;5033363;28;45483;-58
2022/03/11 10:20:11;;;;;;;;;3.40;3.40;;;;;13.23;52.84;100206.22;5034535;28;45824;-54
2022/03/11 10:22:37;;;;;;;;;5.00;3.20;;;;;13.40;52.29;100218.13;5034979;28;45437;-58
2022/03/11 10:25:16;;;;;;;;;2.00;2.00;;;;;13.59;52.00;100219.91;5034453;28;46055;-55
2022/03/11 10:28:06;;;;;;;;;4.80;1.60;;;;;13.53;51.73;100170.19;5034817;28;45359;-56
2022/03/11 10:30:42;;;;;;;;;2.00;2.00;;;;;13.62;51.39;100203.72;5033533;28;45450;-51
2022/03/11 10:33:13;;;;;;;;;3.00;3.00;;;;;13.62;50.99;100214.75;5033760;28;45454;-60
2022/03/11 10:35:44;;;;;;;;;3.00;3.00;;;;;13.53;51.32;100192.25;5052902;28;47587;-58
2022/03/11 10:38:14;;;;;;;;;1.60;1.60;;;;;13.27;51.35;100180.69;5036299;28;45706;-58
2022/03/11 10:40:51;;;;;;;;;2.20;2.20;;;;;13.46;51.64;100221.03;5020161;28;45834;-52
2022/03/11 10:43:17;;;;;;;;;3.60;3.60;;;;;13.47;51.93;100229.06;5052316;28;45396;-56
2022/03/11 10:45:44;;;;;;;;;3.40;3.40;;;;;13.44;51.80;100223.19;5037160;28;45622;-54
2022/03/11 10:48:10;;;;;;;;;4.00;4.00;;;;;13.42;51.84;100221.50;5033372;28;45977;-59
2022/03/11 10:50:36;;;;;;;;;4.00;4.00;;;;;13.21;52.39;100162.34;5014245;28;46529;-57
2022/03/11 10:53:07;;;;;;;;;4.20;4.20;;;;;13.44;53.49;100198.38;5028383;28;45399;-52
2022/03/11 10:55:33;;;;;;;;;4.00;2.20;;;;;13.42;54.01;100215.16;5031400;28;47163;-58
2022/03/11 10:58:04;;;;;;;;;4.80;3.40;;;;;13.39;54.17;100229.41;5036326;28;45467;-55
2022/03/11 11:00:40;;;;;;;;;4.60;4.00;;;;;13.39;55.24;100233.00;5036846;28;45580;-55
2022/03/11 11:03:08;;;;;;;;;5.80;3.80;;;;;13.47;54.67;100245.59;5028785;28;45511;-57
2022/03/11 11:05:34;;;;;;;;;4.80;4.00;;;;;13.52;55.24;100247.63;5035595;28;47631;-61
2022/03/11 11:08:01;;;;;;;;;6.00;4.80;;;;;13.51;55.56;100240.44;5010296;28;46264;-63
2022/03/11 11:10:29;;;;;;;;;3.20;3.20;;;;;13.49;54.81;100232.41;5011842;28;45478;-60